Time;durP1;ratioP1;P1;durP2;ratioP2;P2;SDS_P1;SDS_P2;PMS_P1;PMS_P2;Temp;Humidity;BMP_temperature;BMP_pressure;BME280_temperature;BME280_humidity;BME280_pressure;Samples;Min_cycle;Max_cycle;Signal;HPM_P1;HPM_P2
2023/02/24 00:01:11;;;;;;;;;44.25;37.75;;;;;-147.17;100.00;-15917.19;5019920;28;51606;-70
2023/02/24 00:03:36;;;;;;;;;50.25;39.50;;;;;-147.17;100.00;-15917.19;5013260;28;50952;-68
2023/02/24 00:06:10;;;;;;;;;41.00;32.25;;;;;-147.17;100.00;-15917.19;5019844;28;51004;-68
2023/02/24 00:08:39;;;;;;;;;43.25;37.00;;;;;-147.17;100.00;-15917.19;5004315;28;51346;-67
2023/02/24 00:11:11;;;;;;;;;32.50;29.00;;;;;-147.17;100.00;-15917.19;5025697;28;52214;-66
2023/02/24 00:13:37;;;;;;;;;38.00;33.75;;;;;-147.17;100.00;-15917.19;5012731;28;51386;-70
2023/02/24 00:16:04;;;;;;;;;44.25;37.75;;;;;-147.17;100.00;-15917.19;5014480;28;51315;-70
2023/02/24 00:18:33;;;;;;;;;44.00;37.50;;;;;-147.17;100.00;-15917.19;5014192;28;51026;-69
2023/02/24 00:21:09;;;;;;;;;38.75;34.50;;;;;-147.17;100.00;-15917.19;5013297;28;52378;-69
2023/02/24 00:23:37;;;;;;;;;43.50;37.75;;;;;-147.17;100.00;-15917.19;4998896;28;51064;-70
2023/02/24 00:26:05;;;;;;;;;45.50;39.00;;;;;-147.17;100.00;-15917.19;5014661;28;50940;-70
2023/02/24 00:28:34;;;;;;;;;46.00;38.00;;;;;-147.17;100.00;-15917.19;5014564;28;51255;-69
2023/02/24 00:31:17;;;;;;;;;46.75;40.00;;;;;-147.17;100.00;-15917.19;5033121;28;51084;-69
2023/02/24 00:33:44;;;;;;;;;42.25;38.00;;;;;-147.17;100.00;-15917.19;5023307;28;51144;-70
2023/02/24 00:36:15;;;;;;;;;38.00;35.00;;;;;-147.17;100.00;-15917.19;5031273;28;51347;-70
2023/02/24 00:38:44;;;;;;;;;46.50;39.50;;;;;-147.17;100.00;-15917.19;5028506;28;51050;-69
2023/02/24 00:41:14;;;;;;;;;48.75;38.50;;;;;-147.17;100.00;-15917.19;5022767;28;51179;-66
2023/02/24 00:43:45;;;;;;;;;42.50;37.00;;;;;-147.17;100.00;-15917.19;5017203;28;51196;-67
2023/02/24 00:46:16;;;;;;;;;47.25;37.25;;;;;-147.17;100.00;-15917.19;5031003;28;51405;-68
2023/02/24 00:48:44;;;;;;;;;50.75;39.25;;;;;-147.17;100.00;-15917.19;5024466;28;51326;-69
2023/02/24 00:51:11;;;;;;;;;49.25;38.50;;;;;-147.17;100.00;-15917.19;5025936;28;51192;-69
2023/02/24 00:53:38;;;;;;;;;46.50;38.50;;;;;-147.17;100.00;-15917.19;5019168;28;51063;-67
2023/02/24 00:56:11;;;;;;;;;50.00;41.00;;;;;-147.17;100.00;-15917.19;4996776;28;51090;-70
2023/02/24 00:58:38;;;;;;;;;45.00;36.75;;;;;-147.17;100.00;-15917.19;5026879;28;51012;-70
2023/02/24 01:01:04;;;;;;;;;34.50;30.25;;;;;-147.17;100.00;-15917.19;5025220;28;50932;-68
2023/02/24 01:03:32;;;;;;;;;54.25;40.50;;;;;-147.17;100.00;-15917.19;5009833;28;51280;-68
2023/02/24 01:06:02;;;;;;;;;45.25;38.25;;;;;-147.17;100.00;-15917.19;5021146;28;51052;-68
2023/02/24 01:08:28;;;;;;;;;47.25;41.00;;;;;-147.17;100.00;-15917.19;5011748;28;51273;-70
2023/02/24 01:13:44;;;;;;;;;46.25;40.50;;;;;-147.17;100.00;-15917.19;5015306;28;51023;-69
2023/02/24 01:16:13;;;;;;;;;43.25;35.00;;;;;-147.17;100.00;-15917.19;5004691;28;51378;-69
2023/02/24 01:18:40;;;;;;;;;36.00;34.00;;;;;-147.17;100.00;-15917.19;5018207;28;50896;-69
2023/02/24 01:21:06;;;;;;;;;52.25;42.00;;;;;-147.17;100.00;-15917.19;5020409;28;52876;-70
2023/02/24 01:23:32;;;;;;;;;55.75;43.25;;;;;-147.17;100.00;-15917.19;5021855;28;51117;-71
2023/02/24 01:25:58;;;;;;;;;48.25;38.50;;;;;-147.17;100.00;-15917.19;5019751;28;51331;-71
2023/02/24 01:28:26;;;;;;;;;58.75;44.50;;;;;-147.17;100.00;-15917.19;5026028;28;51352;-72
2023/02/24 01:30:52;;;;;;;;;52.50;40.50;;;;;-147.17;100.00;-15917.19;5013037;28;52705;-69
2023/02/24 01:33:19;;;;;;;;;52.25;41.75;;;;;-147.17;100.00;-15917.19;5007767;28;51110;-73
2023/02/24 01:35:44;;;;;;;;;44.75;40.25;;;;;-147.17;100.00;-15917.19;5018358;28;51182;-70
2023/02/24 01:38:10;;;;;;;;;52.00;39.50;;;;;-147.17;100.00;-15917.19;5024238;28;51401;-71
2023/02/24 01:40:36;;;;;;;;;42.50;36.75;;;;;-147.17;100.00;-15917.19;5028808;28;51702;-70
2023/02/24 01:43:07;;;;;;;;;52.00;40.50;;;;;-147.17;100.00;-15917.19;5022146;28;51166;-71
2023/02/24 01:45:35;;;;;;;;;48.00;40.25;;;;;-147.17;100.00;-15917.19;5024379;28;51145;-70
2023/02/24 01:48:05;;;;;;;;;57.25;46.25;;;;;-147.17;100.00;-15917.19;5027516;28;51089;-69
2023/02/24 01:50:34;;;;;;;;;46.00;39.00;;;;;-147.17;100.00;-15917.19;5025251;28;51843;-70
2023/02/24 01:53:04;;;;;;;;;48.50;37.50;;;;;-147.17;100.00;-15917.19;4999247;28;51341;-71
2023/02/24 01:55:35;;;;;;;;;46.25;35.25;;;;;-147.17;100.00;-15917.19;5011706;28;51158;-72
2023/02/24 01:58:08;;;;;;;;;47.00;40.00;;;;;-147.17;100.00;-15917.19;5027877;28;51355;-71
2023/02/24 02:00:37;;;;;;;;;55.00;41.00;;;;;-147.17;100.00;-15917.19;5021413;28;51068;-71
2023/02/24 02:03:23;;;;;;;;;43.00;37.75;;;;;-147.17;100.00;-15917.19;5013071;28;50939;-70
2023/02/24 02:05:50;;;;;;;;;43.00;33.25;;;;;-147.17;100.00;-15917.19;5019820;28;51203;-71
2023/02/24 02:08:18;;;;;;;;;47.50;38.25;;;;;-147.17;100.00;-15917.19;5013685;28;51343;-71
2023/02/24 02:10:43;;;;;;;;;53.00;40.75;;;;;-147.17;100.00;-15917.19;5014467;28;52796;-71
2023/02/24 02:13:12;;;;;;;;;41.75;36.50;;;;;-147.17;100.00;-15917.19;5020846;28;51043;-72
2023/02/24 02:15:51;;;;;;;;;46.75;40.00;;;;;-147.17;100.00;-15917.19;5022864;28;51074;-72
2023/02/24 02:18:32;;;;;;;;;45.25;38.75;;;;;-147.17;100.00;-15917.19;5016113;28;51114;-72
2023/02/24 02:21:38;;;;;;;;;46.75;36.50;;;;;-147.17;100.00;-15917.19;5027087;28;51849;-73
2023/02/24 02:24:22;;;;;;;;;52.25;38.00;;;;;-147.17;100.00;-15917.19;5028033;28;51089;-72
2023/02/24 02:27:00;;;;;;;;;57.75;45.50;;;;;-147.17;100.00;-15917.19;5017717;28;51213;-71
2023/02/24 02:29:38;;;;;;;;;52.75;42.00;;;;;-147.17;100.00;-15917.19;5032876;28;51169;-72
2023/02/24 02:32:22;;;;;;;;;41.50;36.25;;;;;-147.17;100.00;-15917.19;5021379;28;51972;-72
2023/02/24 02:35:17;;;;;;;;;48.75;41.00;;;;;-147.17;100.00;-15917.19;5026962;28;51216;-71
2023/02/24 02:38:05;;;;;;;;;55.00;44.75;;;;;-147.17;100.00;-15917.19;5018898;28;50999;-71
2023/02/24 02:40:38;;;;;;;;;54.75;44.25;;;;;-147.17;100.00;-15917.19;5026703;28;51189;-71
2023/02/24 02:43:30;;;;;;;;;56.50;45.00;;;;;-147.17;100.00;-15917.19;5018586;28;51912;-71
2023/02/24 02:46:03;;;;;;;;;60.50;45.50;;;;;-147.17;100.00;-15917.19;5026509;28;51292;-70
2023/02/24 02:48:40;;;;;;;;;59.50;45.25;;;;;-147.17;100.00;-15917.19;5001361;28;51050;-72
2023/02/24 02:51:15;;;;;;;;;54.75;43.75;;;;;-147.17;100.00;-15917.19;5023073;28;51030;-70
2023/02/24 02:53:48;;;;;;;;;52.25;42.00;;;;;-147.17;100.00;-15917.19;5032522;28;52162;-72
2023/02/24 02:56:33;;;;;;;;;50.25;41.00;;;;;-147.17;100.00;-15917.19;5025669;28;51035;-69
2023/02/24 02:58:59;;;;;;;;;55.75;44.50;;;;;-147.17;100.00;-15917.19;5021481;28;51116;-70
2023/02/24 03:01:32;;;;;;;;;55.00;42.75;;;;;-147.17;100.00;-15917.19;5026742;28;51224;-69
2023/02/24 03:04:07;;;;;;;;;53.50;41.75;;;;;-147.17;100.00;-15917.19;5024633;28;51346;-71
2023/02/24 03:06:36;;;;;;;;;52.00;40.25;;;;;-147.17;100.00;-15917.19;5008519;28;51232;-71
2023/02/24 03:09:11;;;;;;;;;50.25;41.25;;;;;-147.17;100.00;-15917.19;5006933;28;51043;-71
2023/02/24 03:11:47;;;;;;;;;53.75;42.50;;;;;-147.17;100.00;-15917.19;5031625;28;51739;-71
2023/02/24 03:14:15;;;;;;;;;58.75;45.25;;;;;-147.17;100.00;-15917.19;5017871;28;51722;-71
2023/02/24 03:16:53;;;;;;;;;52.75;44.00;;;;;-147.17;100.00;-15917.19;5028232;28;51241;-72
2023/02/24 03:19:26;;;;;;;;;53.75;42.75;;;;;-147.17;100.00;-15917.19;5013648;28;51086;-71
2023/02/24 03:22:05;;;;;;;;;46.75;39.00;;;;;-147.17;100.00;-15917.19;5014932;28;51187;-71
2023/02/24 03:24:30;;;;;;;;;44.25;38.00;;;;;-147.17;100.00;-15917.19;5013544;28;51028;-70
2023/02/24 03:27:09;;;;;;;;;44.50;37.75;;;;;-147.17;100.00;-15917.19;5026591;28;51581;-71
2023/02/24 03:29:40;;;;;;;;;48.25;39.75;;;;;-147.17;100.00;-15917.19;5006709;28;51178;-70
2023/02/24 03:32:20;;;;;;;;;49.50;41.75;;;;;-147.17;100.00;-15917.19;5027651;28;51051;-70
2023/02/24 03:34:54;;;;;;;;;54.75;41.75;;;;;-147.17;100.00;-15917.19;5016563;28;51108;-70
2023/02/24 03:37:25;;;;;;;;;55.50;45.25;;;;;-147.17;100.00;-15917.19;5027418;28;51795;-71
2023/02/24 03:39:53;;;;;;;;;50.00;39.25;;;;;-147.17;100.00;-15917.19;5014550;28;51141;-70
2023/02/24 03:42:20;;;;;;;;;53.50;42.75;;;;;-147.17;100.00;-15917.19;5023959;28;50923;-70
2023/02/24 03:44:47;;;;;;;;;50.75;40.75;;;;;-147.17;100.00;-15917.19;5028921;28;51100;-71
2023/02/24 03:47:15;;;;;;;;;54.75;44.25;;;;;-147.17;100.00;-15917.19;5031277;28;51199;-70
2023/02/24 03:49:42;;;;;;;;;59.00;45.00;;;;;-147.17;100.00;-15917.19;5025421;28;51204;-70
2023/02/24 03:52:35;;;;;;;;;50.00;41.50;;;;;-147.17;100.00;-15917.19;5015374;28;50966;-69
2023/02/24 03:55:28;;;;;;;;;58.25;43.25;;;;;-147.17;100.00;-15917.19;5022015;28;51757;-71
2023/02/24 03:57:58;;;;;;;;;51.25;39.50;;;;;-147.17;100.00;-15917.19;5013318;28;51239;-71
2023/02/24 04:00:45;;;;;;;;;49.00;39.75;;;;;-147.17;100.00;-15917.19;5017945;28;51164;-71
2023/02/24 04:03:25;;;;;;;;;53.50;42.25;;;;;-147.17;100.00;-15917.19;5014488;28;51196;-71
2023/02/24 04:05:56;;;;;;;;;49.50;41.00;;;;;-147.17;100.00;-15917.19;5015795;28;52253;-70
2023/02/24 04:08:26;;;;;;;;;55.00;42.00;;;;;-147.17;100.00;-15917.19;5031782;28;51191;-71
2023/02/24 04:10:54;;;;;;;;;44.75;38.25;;;;;-147.17;100.00;-15917.19;5032835;28;50999;-69
2023/02/24 04:13:35;;;;;;;;;44.50;37.00;;;;;-147.17;100.00;-15917.19;5021867;28;51399;-70
2023/02/24 04:16:15;;;;;;;;;50.50;41.00;;;;;-147.17;100.00;-15917.19;5015232;28;51196;-69
2023/02/24 04:18:47;;;;;;;;;49.00;41.75;;;;;-147.17;100.00;-15917.19;5012160;28;51145;-70
2023/02/24 04:21:15;;;;;;;;;41.50;37.50;;;;;-147.17;100.00;-15917.19;5022493;28;50965;-69
2023/02/24 04:23:43;;;;;;;;;51.75;41.25;;;;;-147.17;100.00;-15917.19;5022160;28;51047;-68
2023/02/24 04:26:12;;;;;;;;;42.25;34.25;;;;;-147.17;100.00;-15917.19;5023100;28;51214;-70
2023/02/24 04:28:39;;;;;;;;;53.50;44.50;;;;;-147.17;100.00;-15917.19;5012078;28;51200;-68
2023/02/24 04:31:09;;;;;;;;;51.25;40.25;;;;;-147.17;100.00;-15917.19;5012005;28;51352;-70
2023/02/24 04:33:37;;;;;;;;;46.25;38.25;;;;;-147.17;100.00;-15917.19;5011426;28;51420;-68
2023/02/24 04:36:03;;;;;;;;;53.25;42.75;;;;;-147.17;100.00;-15917.19;5014947;28;53693;-71
2023/02/24 04:38:29;;;;;;;;;48.00;38.00;;;;;-147.17;100.00;-15917.19;5008116;28;51059;-70
2023/02/24 04:40:56;;;;;;;;;48.75;39.25;;;;;-147.17;100.00;-15917.19;5030449;28;51022;-70
2023/02/24 04:43:21;;;;;;;;;46.75;39.25;;;;;-147.17;100.00;-15917.19;5029120;28;51208;-72
2023/02/24 04:45:47;;;;;;;;;52.00;44.75;;;;;-147.17;100.00;-15917.19;5021306;28;51159;-69
2023/02/24 04:48:13;;;;;;;;;52.25;41.75;;;;;-147.17;100.00;-15917.19;5016386;28;51154;-72
2023/02/24 04:50:41;;;;;;;;;48.75;38.75;;;;;-147.17;100.00;-15917.19;5001306;28;51251;-69
2023/02/24 04:53:13;;;;;;;;;53.75;41.50;;;;;-147.17;100.00;-15917.19;5006814;28;51349;-68
2023/02/24 04:55:41;;;;;;;;;54.25;41.00;;;;;-147.17;100.00;-15917.19;5015353;28;52275;-68
2023/02/24 04:58:12;;;;;;;;;43.75;39.50;;;;;-147.17;100.00;-15917.19;5024504;28;50956;-69
2023/02/24 05:00:40;;;;;;;;;46.00;36.75;;;;;-147.17;100.00;-15917.19;5025824;28;51176;-70
2023/02/24 05:03:07;;;;;;;;;44.75;38.00;;;;;-147.17;100.00;-15917.19;5023418;28;51003;-67
2023/02/24 05:05:32;;;;;;;;;51.25;40.75;;;;;-147.17;100.00;-15917.19;5017988;28;51266;-69
2023/02/24 05:08:05;;;;;;;;;46.25;38.25;;;;;-147.17;100.00;-15917.19;5015719;28;51046;-67
2023/02/24 05:10:44;;;;;;;;;56.00;41.50;;;;;-147.17;100.00;-15917.19;5013208;28;51146;-69
2023/02/24 05:13:16;;;;;;;;;49.25;39.75;;;;;-147.17;100.00;-15917.19;4970636;28;1173619;-70
2023/02/24 05:15:43;;;;;;;;;52.00;41.00;;;;;-147.17;100.00;-15917.19;5023292;28;52418;-68
2023/02/24 05:18:15;;;;;;;;;40.00;34.75;;;;;-147.17;100.00;-15917.19;5015553;28;51157;-68
2023/02/24 05:23:33;;;;;;;;;47.25;41.00;;;;;-147.17;100.00;-15917.19;5028373;28;51079;-69
2023/02/24 05:26:01;;;;;;;;;42.75;37.75;;;;;-147.17;100.00;-15917.19;5031311;28;52566;-68
2023/02/24 05:28:30;;;;;;;;;50.50;38.00;;;;;-147.17;100.00;-15917.19;5022596;28;51160;-68
2023/02/24 05:31:04;;;;;;;;;52.50;41.00;;;;;-147.17;100.00;-15917.19;5006282;28;51434;-69
2023/02/24 05:33:30;;;;;;;;;46.75;40.50;;;;;-147.17;100.00;-15917.19;4999731;28;51496;-69
2023/02/24 05:35:55;;;;;;;;;51.25;41.25;;;;;-147.17;100.00;-15917.19;5010895;28;51875;-70
2023/02/24 05:38:21;;;;;;;;;53.00;42.00;;;;;-147.17;100.00;-15917.19;5027122;28;51162;-69
2023/02/24 05:40:47;;;;;;;;;50.75;41.00;;;;;-147.17;100.00;-15917.19;5022105;28;51169;-71
2023/02/24 05:43:17;;;;;;;;;56.25;44.25;;;;;-147.17;100.00;-15917.19;5030650;28;51414;-70
2023/02/24 05:45:44;;;;;;;;;52.25;39.00;;;;;-147.17;100.00;-15917.19;5019079;28;51190;-70
2023/02/24 05:48:16;;;;;;;;;58.00;45.75;;;;;-147.17;100.00;-15917.19;4999932;28;51247;-69
2023/02/24 05:50:45;;;;;;;;;56.75;44.75;;;;;-147.17;100.00;-15917.19;5011700;28;51243;-70
2023/02/24 05:53:12;;;;;;;;;55.50;43.75;;;;;-147.17;100.00;-15917.19;5026669;28;51092;-69
2023/02/24 05:55:37;;;;;;;;;51.00;41.25;;;;;-147.17;100.00;-15917.19;5020291;28;51133;-70
2023/02/24 05:58:06;;;;;;;;;52.00;42.75;;;;;-147.17;100.00;-15917.19;5025090;28;51154;-72
2023/02/24 06:00:32;;;;;;;;;52.75;40.75;;;;;-147.17;100.00;-15917.19;5020650;28;51051;-72
2023/02/24 06:03:07;;;;;;;;;48.50;40.00;;;;;-147.17;100.00;-15917.19;5024325;28;50948;-71
2023/02/24 06:05:34;;;;;;;;;55.25;43.00;;;;;-147.17;100.00;-15917.19;5025213;28;52026;-72
2023/02/24 06:08:10;;;;;;;;;56.75;41.00;;;;;-147.17;100.00;-15917.19;5023258;28;51409;-71
2023/02/24 06:10:36;;;;;;;;;47.00;38.50;;;;;-147.17;100.00;-15917.19;5024522;28;51121;-72
2023/02/24 06:13:02;;;;;;;;;53.25;41.50;;;;;-147.17;100.00;-15917.19;4995175;28;51118;-70
2023/02/24 06:15:28;;;;;;;;;53.25;43.50;;;;;-147.17;100.00;-15917.19;5011754;28;52061;-70
2023/02/24 06:17:55;;;;;;;;;52.50;41.25;;;;;-147.17;100.00;-15917.19;5023755;28;51154;-70
2023/02/24 06:20:25;;;;;;;;;48.00;41.00;;;;;-147.17;100.00;-15917.19;5023796;28;51301;-70
2023/02/24 06:22:53;;;;;;;;;53.75;41.00;;;;;-147.17;100.00;-15917.19;5017334;28;51370;-71
2023/02/24 06:25:25;;;;;;;;;49.00;40.00;;;;;-147.17;100.00;-15917.19;4998030;28;52758;-71
2023/02/24 06:27:54;;;;;;;;;50.75;41.00;;;;;-147.17;100.00;-15917.19;5018716;28;51132;-70
2023/02/24 06:30:25;;;;;;;;;58.00;41.75;;;;;-147.17;100.00;-15917.19;5011817;28;50967;-71
2023/02/24 06:32:51;;;;;;;;;51.50;41.50;;;;;-147.17;100.00;-15917.19;5020466;28;51288;-70
2023/02/24 06:35:18;;;;;;;;;48.00;39.25;;;;;-147.17;100.00;-15917.19;5029274;28;51775;-71
2023/02/24 06:37:43;;;;;;;;;50.00;36.75;;;;;-147.17;100.00;-15917.19;5015076;28;51069;-72
2023/02/24 06:40:14;;;;;;;;;47.25;39.00;;;;;-147.17;100.00;-15917.19;5011228;28;51042;-71
2023/02/24 06:42:47;;;;;;;;;46.00;38.75;;;;;-147.17;100.00;-15917.19;4996350;28;51477;-70
2023/02/24 06:45:14;;;;;;;;;48.00;40.00;;;;;-147.17;100.00;-15917.19;5019258;28;51862;-70
2023/02/24 06:47:41;;;;;;;;;50.00;41.25;;;;;-147.17;100.00;-15917.19;5011483;28;50968;-70
2023/02/24 06:50:09;;;;;;;;;51.50;40.00;;;;;-147.17;100.00;-15917.19;5022110;28;51307;-70
2023/02/24 06:52:35;;;;;;;;;47.25;38.50;;;;;-147.17;100.00;-15917.19;4990934;28;51129;-69
2023/02/24 06:55:03;;;;;;;;;51.50;39.75;;;;;-147.17;100.00;-15917.19;5017072;28;51089;-69
2023/02/24 06:57:34;;;;;;;;;45.75;39.25;;;;;-147.17;100.00;-15917.19;5024360;28;51101;-69
2023/02/24 07:00:15;;;;;;;;;42.50;33.25;;;;;-147.17;100.00;-15917.19;5026101;28;51067;-70
2023/02/24 07:02:41;;;;;;;;;43.00;35.75;;;;;-147.17;100.00;-15917.19;4991571;28;51142;-71
2023/02/24 07:05:13;;;;;;;;;43.75;38.25;;;;;-147.17;100.00;-15917.19;5009114;28;53175;-71
2023/02/24 07:07:44;;;;;;;;;42.75;33.25;;;;;-147.17;100.00;-15917.19;5020083;28;50971;-71
2023/02/24 07:10:14;;;;;;;;;47.50;37.75;;;;;-147.17;100.00;-15917.19;5027852;28;50967;-70
2023/02/24 07:12:40;;;;;;;;;47.25;37.75;;;;;-147.17;100.00;-15917.19;5010556;28;51440;-67
2023/02/24 07:15:07;;;;;;;;;48.25;39.25;;;;;-147.17;100.00;-15917.19;5005865;28;52137;-68
2023/02/24 07:17:32;;;;;;;;;38.75;32.75;;;;;-147.17;100.00;-15917.19;5005316;28;51188;-69
2023/02/24 07:20:09;;;;;;;;;39.75;37.00;;;;;-147.17;100.00;-15917.19;5022417;28;51101;-69
2023/02/24 07:22:35;;;;;;;;;43.25;34.25;;;;;-147.17;100.00;-15917.19;5014309;28;51204;-68
2023/02/24 07:25:00;;;;;;;;;41.50;29.00;;;;;-147.17;100.00;-15917.19;4995412;28;53515;-68
2023/02/24 07:27:26;;;;;;;;;44.00;35.50;;;;;-147.17;100.00;-15917.19;5016148;28;51097;-68
2023/02/24 07:29:52;;;;;;;;;51.25;39.25;;;;;-147.17;100.00;-15917.19;5014148;28;50975;-69
2023/02/24 07:32:21;;;;;;;;;37.25;34.75;;;;;-147.17;100.00;-15917.19;5014456;28;51046;-68
2023/02/24 07:34:46;;;;;;;;;45.75;38.25;;;;;-147.17;100.00;-15917.19;5012375;28;51354;-69
2023/02/24 07:37:12;;;;;;;;;45.75;39.00;;;;;-147.17;100.00;-15917.19;5015683;28;51148;-70
2023/02/24 07:39:39;;;;;;;;;48.00;41.75;;;;;-147.17;100.00;-15917.19;5013686;28;51231;-71
2023/02/24 07:42:06;;;;;;;;;56.25;45.25;;;;;-147.17;100.00;-15917.19;5014380;28;51302;-70
2023/02/24 07:44:32;;;;;;;;;52.00;40.00;;;;;-147.17;100.00;-15917.19;5013943;28;52706;-70
2023/02/24 07:46:58;;;;;;;;;43.75;37.75;;;;;-147.17;100.00;-15917.19;5016057;28;51072;-70
2023/02/24 07:49:25;;;;;;;;;49.50;40.75;;;;;-147.17;100.00;-15917.19;5023532;28;51139;-70
2023/02/24 07:51:54;;;;;;;;;34.75;29.00;;;;;-147.17;100.00;-15917.19;5015237;28;51450;-69
2023/02/24 07:54:20;;;;;;;;;41.25;36.50;;;;;-147.17;100.00;-15917.19;5030389;28;52723;-68
2023/02/24 07:56:55;;;;;;;;;47.25;39.25;;;;;-147.17;100.00;-15917.19;5016461;28;51005;-68
2023/02/24 07:59:31;;;;;;;;;42.75;36.00;;;;;-147.17;100.00;-15917.19;5024807;28;51092;-68
2023/02/24 08:01:57;;;;;;;;;47.00;39.50;;;;;-147.17;100.00;-15917.19;5004064;28;51019;-68
2023/02/24 08:04:27;;;;;;;;;49.50;38.25;;;;;-147.17;100.00;-15917.19;5021305;28;51963;-67
2023/02/24 08:06:57;;;;;;;;;44.50;36.50;;;;;-147.17;100.00;-15917.19;5027030;28;51140;-68
2023/02/24 08:10:08;;;;;;;;;42.25;35.50;;;;;-147.17;100.00;-15917.19;5030345;28;51173;-68
2023/02/24 08:12:29;;;;;;;;;40.75;37.25;;;;;-147.17;100.00;-15917.19;5025870;28;50946;-68
2023/02/24 08:14:59;;;;;;;;;46.00;37.50;;;;;-147.17;100.00;-15917.19;5027621;28;51922;-68
2023/02/24 08:17:25;;;;;;;;;39.00;34.00;;;;;-147.17;100.00;-15917.19;5021687;28;51094;-69
2023/02/24 08:20:20;;;;;;;;;39.50;32.50;;;;;-147.17;100.00;-15917.19;5013784;28;51043;-67
2023/02/24 08:22:43;;;;;;;;;49.00;39.00;;;;;-147.17;100.00;-15917.19;5020453;28;51246;-68
2023/02/24 08:25:09;;;;;;;;;43.75;38.50;;;;;-147.17;100.00;-15917.19;5011687;28;51745;-68
2023/02/24 08:27:39;;;;;;;;;46.75;38.25;;;;;-147.17;100.00;-15917.19;5012976;28;50982;-68
2023/02/24 08:30:06;;;;;;;;;50.00;37.75;;;;;-147.17;100.00;-15917.19;5014344;28;51090;-69
2023/02/24 08:32:42;;;;;;;;;49.25;39.75;;;;;-147.17;100.00;-15917.19;5027420;28;51518;-69
2023/02/24 08:35:14;;;;;;;;;40.75;35.50;;;;;-147.17;100.00;-15917.19;5005650;28;51962;-70
2023/02/24 08:37:45;;;;;;;;;48.00;38.75;;;;;-147.17;100.00;-15917.19;5019355;28;51290;-68
2023/02/24 08:42:59;;;;;;;;;38.75;35.50;;;;;-147.17;100.00;-15917.19;5017442;28;51993;-66
2023/02/24 08:45:27;;;;;;;;;41.75;38.00;;;;;-147.17;100.00;-15917.19;5011044;28;52901;-67
2023/02/24 08:47:59;;;;;;;;;32.25;30.25;;;;;-147.17;100.00;-15917.19;5002318;28;51131;-69
2023/02/24 08:50:29;;;;;;;;;40.25;33.25;;;;;-147.17;100.00;-15917.19;4999580;28;51243;-69
2023/02/24 08:52:59;;;;;;;;;33.25;31.00;;;;;-147.17;100.00;-15917.19;5022143;28;51244;-68
2023/02/24 08:55:31;;;;;;;;;43.00;35.75;;;;;-147.17;100.00;-15917.19;5019969;28;51125;-67
2023/02/24 08:58:00;;;;;;;;;37.25;31.25;;;;;-147.17;100.00;-15917.19;5032743;28;50957;-66
2023/02/24 09:00:47;;;;;;;;;42.25;35.25;;;;;-147.17;100.00;-15917.19;5024930;28;51187;-68
2023/02/24 09:03:32;;;;;;;;;46.25;37.25;;;;;-147.17;100.00;-15917.19;4998270;28;51211;-68
2023/02/24 09:05:59;;;;;;;;;35.00;33.00;;;;;-147.17;100.00;-15917.19;5013120;28;51630;-68
2023/02/24 09:08:31;;;;;;;;;36.25;30.00;;;;;-147.17;100.00;-15917.19;5021036;28;51125;-68
2023/02/24 09:10:58;;;;;;;;;41.75;36.50;;;;;-147.17;100.00;-15917.19;5020366;28;51061;-68
2023/02/24 09:13:31;;;;;;;;;41.25;36.75;;;;;-147.17;100.00;-15917.19;5002289;28;52012;-68
2023/02/24 09:15:59;;;;;;;;;36.25;32.75;;;;;-147.17;100.00;-15917.19;5007758;28;52015;-67
2023/02/24 09:18:29;;;;;;;;;44.00;37.50;;;;;-147.17;100.00;-15917.19;5012815;28;51129;-67
2023/02/24 09:21:34;;;;;;;;;41.25;37.25;;;;;-147.17;100.00;-15917.19;5012555;28;50887;-68
2023/02/24 09:23:45;;;;;;;;;40.25;33.75;;;;;-147.17;100.00;-15917.19;5011112;28;51115;-67
2023/02/24 09:26:12;;;;;;;;;42.75;38.00;;;;;-147.17;100.00;-15917.19;5012837;28;51232;-68
2023/02/24 09:28:53;;;;;;;;;41.50;37.75;;;;;-147.17;100.00;-15917.19;5011468;28;50979;-69
2023/02/24 09:31:22;;;;;;;;;42.75;36.75;;;;;-147.17;100.00;-15917.19;5013011;28;51253;-68
2023/02/24 09:33:49;;;;;;;;;36.50;31.50;;;;;-147.17;100.00;-15917.19;5008493;28;51297;-68
2023/02/24 09:36:26;;;;;;;;;41.50;37.25;;;;;-147.17;100.00;-15917.19;4992158;28;51920;-67
2023/02/24 09:44:59;;;;;;;;;33.00;28.75;;;;;-147.17;100.00;-15917.19;5012587;28;51009;-67
2023/02/24 09:47:38;;;;;;;;;38.25;34.75;;;;;-147.17;100.00;-15917.19;4961375;28;51990;-68
2023/02/24 09:50:18;;;;;;;;;37.75;34.00;;;;;-147.17;100.00;-15917.19;4992281;28;51084;-67
2023/02/24 09:52:45;;;;;;;;;35.25;33.75;;;;;-147.17;100.00;-15917.19;5000955;28;50995;-70
2023/02/24 09:55:24;;;;;;;;;37.25;33.50;;;;;-147.17;100.00;-15917.19;5012518;28;51276;-67
2023/02/24 10:00:47;;;;;;;;;36.00;34.25;;;;;-147.17;100.00;-15917.19;5003081;28;51070;-67
2023/02/24 10:03:28;;;;;;;;;42.50;36.50;;;;;-147.17;100.00;-15917.19;4993689;28;51112;-67
2023/02/24 10:06:11;;;;;;;;;32.25;30.25;;;;;-147.17;100.00;-15917.19;5002505;28;51203;-68
2023/02/24 10:08:41;;;;;;;;;33.75;31.50;;;;;-147.17;100.00;-15917.19;4991960;28;51123;-67
2023/02/24 10:11:10;;;;;;;;;40.25;35.50;;;;;-147.17;100.00;-15917.19;5002078;28;51089;-67
2023/02/24 10:13:48;;;;;;;;;35.00;30.00;;;;;-147.17;100.00;-15917.19;5018980;28;51096;-66
2023/02/24 10:16:22;;;;;;;;;33.25;32.00;;;;;-147.17;100.00;-15917.19;5031278;28;50862;-68
2023/02/24 10:19:15;;;;;;;;;27.00;26.00;;;;;-147.17;100.00;-15917.19;5031981;28;53104;-68
2023/02/24 10:21:59;;;;;;;;;23.00;21.50;;;;;-147.17;100.00;-15917.19;5031288;28;51090;-66
2023/02/24 10:24:46;;;;;;;;;30.50;28.50;;;;;-147.17;100.00;-15917.19;5031593;28;50936;-67
2023/02/24 10:27:22;;;;;;;;;27.50;26.50;;;;;-147.17;100.00;-15917.19;5032071;28;51200;-67
2023/02/24 10:30:09;;;;;;;;;29.00;26.25;;;;;-147.17;100.00;-15917.19;5031663;28;52212;-66
2023/02/24 10:33:04;;;;;;;;;27.25;26.50;;;;;-147.17;100.00;-15917.19;5031868;28;51174;-65
2023/02/24 10:35:32;;;;;;;;;31.25;26.00;;;;;-147.17;100.00;-15917.19;5031760;28;50994;-67
2023/02/24 10:38:04;;;;;;;;;29.25;27.50;;;;;-147.17;100.00;-15917.19;5031345;28;51430;-70
2023/02/24 10:40:43;;;;;;;;;29.50;28.50;;;;;-147.17;100.00;-15917.19;5030974;28;52227;-70
2023/02/24 10:43:16;;;;;;;;;24.50;21.75;;;;;-147.17;100.00;-15917.19;5031370;28;51113;-71
2023/02/24 10:45:46;;;;;;;;;33.75;29.75;;;;;-147.17;100.00;-15917.19;5031638;28;51083;-71
2023/02/24 10:48:26;;;;;;;;;30.50;29.00;;;;;-147.17;100.00;-15917.19;5025659;28;51208;-71
2023/02/24 10:50:54;;;;;;;;;35.75;33.75;;;;;-147.17;100.00;-15917.19;5034495;28;51939;-71
2023/02/24 10:53:39;;;;;;;;;31.00;29.00;;;;;-147.17;100.00;-15917.19;5034534;28;50991;-69
2023/02/24 10:56:25;;;;;;;;;28.50;25.50;;;;;-147.17;100.00;-15917.19;5035198;28;51129;-68
2023/02/24 11:02:05;;;;;;;;;31.25;28.75;;;;;-147.17;100.00;-15917.19;5029472;28;51131;-57
2023/02/24 11:05:25;;;;;;;;;31.00;29.00;;;;;-147.17;100.00;-15917.19;5014772;28;51078;-57
2023/02/24 11:07:44;;;;;;;;;31.25;29.25;;;;;-147.17;100.00;-15917.19;5011686;28;51341;-56
2023/02/24 11:10:24;;;;;;;;;31.50;25.00;;;;;-147.17;100.00;-15917.19;5018063;28;50952;-56
2023/02/24 11:18:29;;;;;;;;;23.25;21.50;;;;;-147.17;100.00;-15917.19;5014714;28;50944;-57
2023/02/24 11:20:59;;;;;;;;;39.25;33.50;;;;;-147.17;100.00;-15917.19;5010253;28;51114;-58
2023/02/24 11:23:33;;;;;;;;;28.00;25.25;;;;;-147.17;100.00;-15917.19;5028154;28;51700;-57
2023/02/24 11:26:20;;;;;;;;;25.00;25.00;;;;;-147.17;100.00;-15917.19;5014397;28;50961;-58
2023/02/24 11:29:02;;;;;;;;;28.25;26.50;;;;;-147.17;100.00;-15917.19;5014627;28;51084;-58
2023/02/24 11:31:52;;;;;;;;;28.50;27.75;;;;;-147.17;100.00;-15917.19;5014748;28;50920;-60
2023/02/24 11:34:31;;;;;;;;;31.75;28.25;;;;;-147.17;100.00;-15917.19;5014025;28;52093;-59